createdAt,value
2023-01-19T00:01:39.071Z,54.77
2023-01-19T00:04:07.109Z,54.59
2023-01-19T00:06:34.946Z,54.29
2023-01-19T00:09:02.775Z,54.68
2023-01-19T00:11:30.689Z,54.68
2023-01-19T00:13:59.243Z,54.40
2023-01-19T00:16:27.229Z,54.37
2023-01-19T00:18:55.960Z,53.52
2023-01-19T00:21:23.884Z,53.32
2023-01-19T00:23:53.001Z,53.69
2023-01-19T00:26:22.621Z,53.63
2023-01-19T00:28:50.722Z,53.64
2023-01-19T00:31:20.911Z,53.67
2023-01-19T00:33:49.707Z,54.00
2023-01-19T00:36:17.621Z,53.89
2023-01-19T00:38:45.429Z,54.45
2023-01-19T00:41:13.368Z,53.95
2023-01-19T00:43:41.420Z,54.21
2023-01-19T00:46:09.453Z,54.63
2023-01-19T00:48:37.374Z,54.86
2023-01-19T00:51:05.375Z,54.49
2023-01-19T00:53:33.193Z,54.68
2023-01-19T00:56:01.002Z,54.80
2023-01-19T00:58:28.776Z,54.40
2023-01-19T01:01:04.036Z,54.47
2023-01-19T01:03:32.569Z,54.47
2023-01-19T01:06:00.449Z,54.51
2023-01-19T01:08:28.300Z,54.64
2023-01-19T01:10:56.368Z,54.27
2023-01-19T01:13:26.335Z,54.31
2023-01-19T01:15:55.789Z,54.45
2023-01-19T01:18:23.845Z,55.03
2023-01-19T01:20:51.657Z,54.33
2023-01-19T01:23:23.298Z,54.48
2023-01-19T01:25:51.200Z,55.13
2023-01-19T01:28:19.117Z,55.13
2023-01-19T01:30:46.933Z,54.67
2023-01-19T01:33:14.727Z,55.25
2023-01-19T01:35:42.555Z,55.38
2023-01-19T01:38:10.496Z,55.56
2023-01-19T01:40:41.423Z,55.51
2023-01-19T01:43:16.511Z,56.15
2023-01-19T01:45:44.683Z,56.19
2023-01-19T01:48:14.154Z,56.00
2023-01-19T01:51:08.461Z,56.44
2023-01-19T01:53:36.387Z,55.84
2023-01-19T01:56:06.485Z,56.65
2023-01-19T01:58:35.269Z,56.23
2023-01-19T02:01:21.597Z,56.61
2023-01-19T02:03:49.664Z,56.16
2023-01-19T02:06:17.708Z,55.79
2023-01-19T02:09:13.951Z,55.30
2023-01-19T02:12:00.035Z,55.01
2023-01-19T02:14:28.191Z,54.78
2023-01-19T02:16:56.035Z,54.59
2023-01-19T02:19:31.581Z,54.29
2023-01-19T02:22:13.319Z,54.57
2023-01-19T02:24:41.328Z,54.51
2023-01-19T02:27:09.419Z,54.07
2023-01-19T02:29:37.112Z,54.26
2023-01-19T02:32:06.214Z,54.48
2023-01-19T02:34:34.117Z,53.89
2023-01-19T02:37:13.277Z,54.40
2023-01-19T02:39:51.160Z,54.16
2023-01-19T02:42:23.654Z,53.65
2023-01-19T02:44:51.564Z,53.85
2023-01-19T02:47:20.173Z,54.34
2023-01-19T02:50:01.000Z,54.78
2023-01-19T02:52:28.816Z,54.59
2023-01-19T02:55:02.481Z,55.28
2023-01-19T02:57:33.514Z,55.15
2023-01-19T03:00:23.163Z,55.23
2023-01-19T03:02:53.798Z,55.60
2023-01-19T03:05:38.734Z,55.96
2023-01-19T03:08:22.520Z,56.55
2023-01-19T03:11:02.962Z,56.66
2023-01-19T03:13:55.736Z,56.53
2023-01-19T03:16:37.248Z,56.01
2023-01-19T03:19:08.980Z,56.29
2023-01-19T03:21:37.721Z,55.88
2023-01-19T03:24:07.037Z,55.29
2023-01-19T03:26:38.305Z,54.47
2023-01-19T03:29:07.381Z,54.38
2023-01-19T03:31:35.131Z,53.08
2023-01-19T03:34:06.133Z,53.96
2023-01-19T03:37:05.240Z,52.92
2023-01-19T03:39:33.096Z,53.75
2023-01-19T03:42:03.599Z,53.60
2023-01-19T03:44:31.919Z,53.36
2023-01-19T03:46:59.817Z,53.06
2023-01-19T03:49:27.882Z,53.25
2023-01-19T03:51:59.399Z,53.57
2023-01-19T03:54:27.539Z,53.46
2023-01-19T03:56:55.480Z,52.93
2023-01-19T03:59:23.426Z,51.13
2023-01-19T04:01:51.165Z,50.80
2023-01-19T04:04:19.270Z,50.49
2023-01-19T04:06:47.205Z,51.13
2023-01-19T04:09:15.093Z,50.00
2023-01-19T04:11:42.998Z,50.06
2023-01-19T04:14:11.143Z,50.16
2023-01-19T04:16:38.975Z,50.11
2023-01-19T04:19:06.821Z,49.39
2023-01-19T04:21:34.663Z,49.24
2023-01-19T04:24:02.627Z,48.50
2023-01-19T04:26:30.557Z,48.17
2023-01-19T04:28:58.939Z,48.84
2023-01-19T04:31:26.796Z,48.27
2023-01-19T04:33:54.885Z,47.78
2023-01-19T04:36:22.747Z,46.76
2023-01-19T04:38:50.880Z,46.80
2023-01-19T04:41:19.046Z,46.33
2023-01-19T04:43:48.095Z,45.75
2023-01-19T04:46:16.072Z,46.07
2023-01-19T04:48:44.021Z,45.56
2023-01-19T04:51:12.360Z,44.97
2023-01-19T04:53:40.708Z,44.68
2023-01-19T04:56:08.506Z,44.90
2023-01-19T04:58:36.955Z,44.67
2023-01-19T05:01:09.071Z,44.73
2023-01-19T05:03:37.224Z,45.02
2023-01-19T05:06:07.847Z,44.16
2023-01-19T05:08:35.672Z,44.25
2023-01-19T05:11:04.071Z,44.03
2023-01-19T05:13:33.895Z,43.62
2023-01-19T05:16:02.189Z,43.45
2023-01-19T05:18:36.404Z,42.51
2023-01-19T05:21:04.803Z,42.08
2023-01-19T05:23:33.188Z,41.74
2023-01-19T05:26:02.334Z,41.73
2023-01-19T05:28:30.955Z,41.89
2023-01-19T05:30:59.135Z,42.17
2023-01-19T05:33:28.135Z,41.59
2023-01-19T05:35:55.930Z,41.59
2023-01-19T05:38:34.465Z,41.10
2023-01-19T05:41:02.939Z,41.26
2023-01-19T05:43:30.741Z,42.25
2023-01-19T05:45:58.676Z,42.46
2023-01-19T05:48:26.551Z,42.62
2023-01-19T05:50:58.603Z,42.29
2023-01-19T05:53:26.559Z,42.44
2023-01-19T05:55:54.742Z,42.76
2023-01-19T05:58:22.679Z,43.38
2023-01-19T06:00:50.766Z,44.05
2023-01-19T06:03:19.125Z,44.53
2023-01-19T06:05:47.429Z,44.67
2023-01-19T06:08:18.054Z,45.60
2023-01-19T06:10:45.926Z,45.61
2023-01-19T06:13:13.719Z,46.47
2023-01-19T06:15:43.187Z,46.61
2023-01-19T06:18:17.339Z,46.59
2023-01-19T06:20:45.209Z,47.66
2023-01-19T06:23:13.055Z,48.78
2023-01-19T06:25:40.903Z,49.29
2023-01-19T06:28:08.688Z,49.64
2023-01-19T06:30:36.495Z,49.19
2023-01-19T06:33:04.254Z,49.34
2023-01-19T06:35:32.264Z,49.20
2023-01-19T06:37:59.984Z,50.06
2023-01-19T06:40:28.126Z,49.88
2023-01-19T06:42:56.077Z,50.36
2023-01-19T06:45:23.990Z,50.28
2023-01-19T06:47:51.974Z,51.27
2023-01-19T06:50:19.883Z,51.20
2023-01-19T06:52:51.348Z,50.76
2023-01-19T06:55:19.358Z,50.88
2023-01-19T06:57:47.827Z,51.20
2023-01-19T07:00:16.666Z,50.64
2023-01-19T07:02:44.658Z,50.25
2023-01-19T07:05:14.777Z,50.30
2023-01-19T07:07:43.621Z,50.01
2023-01-19T07:10:16.780Z,50.11
2023-01-19T07:12:46.966Z,50.18
2023-01-19T07:15:19.960Z,50.36
2023-01-19T07:17:47.920Z,50.38
2023-01-19T07:20:15.953Z,49.76
2023-01-19T07:22:46.113Z,50.34
2023-01-19T07:25:14.531Z,50.28
2023-01-19T07:27:42.421Z,50.65
2023-01-19T07:30:10.783Z,50.31
2023-01-19T07:32:38.817Z,51.17
2023-01-19T07:35:06.869Z,50.86
2023-01-19T07:37:34.801Z,50.80
2023-01-19T07:40:02.636Z,50.44
2023-01-19T07:42:30.674Z,50.75
2023-01-19T07:44:58.771Z,50.95
2023-01-19T07:47:26.483Z,50.25
2023-01-19T07:49:54.412Z,50.91
2023-01-19T07:52:23.357Z,50.67
2023-01-19T07:54:51.473Z,50.69
2023-01-19T07:57:19.833Z,50.26
2023-01-19T07:59:47.749Z,49.81
2023-01-19T08:02:16.444Z,49.99
2023-01-19T08:04:45.246Z,50.35
2023-01-19T08:07:13.170Z,50.75
2023-01-19T08:09:41.317Z,51.25
2023-01-19T08:12:09.149Z,51.85
2023-01-19T08:14:37.083Z,52.15
2023-01-19T08:17:04.982Z,52.42
2023-01-19T08:19:32.744Z,53.25
2023-01-19T08:22:00.638Z,53.13
2023-01-19T08:24:29.527Z,53.32
2023-01-19T08:27:00.971Z,52.54
2023-01-19T08:29:31.191Z,51.87
2023-01-19T08:32:00.530Z,52.18
2023-01-19T08:34:28.328Z,51.95
2023-01-19T08:36:56.163Z,52.06
2023-01-19T08:39:24.985Z,51.89
2023-01-19T08:41:55.813Z,51.91
2023-01-19T08:44:23.619Z,52.27
2023-01-19T08:46:51.595Z,52.67
2023-01-19T08:49:19.410Z,52.78
2023-01-19T08:51:49.971Z,52.86
2023-01-19T08:54:18.720Z,52.76
2023-01-19T08:56:46.694Z,53.18
2023-01-19T08:59:14.493Z,53.01
2023-01-19T09:01:42.605Z,53.54
2023-01-19T09:04:10.581Z,53.82
2023-01-19T09:06:38.631Z,53.88
2023-01-19T09:09:06.377Z,53.84
2023-01-19T09:11:35.314Z,54.42
2023-01-19T09:14:03.791Z,54.14
2023-01-19T09:16:31.675Z,55.08
2023-01-19T09:18:59.650Z,54.46
2023-01-19T09:21:27.492Z,54.34
2023-01-19T09:23:55.505Z,54.11
2023-01-19T09:26:24.119Z,54.23
2023-01-19T09:28:51.991Z,54.22
2023-01-19T09:31:20.042Z,54.85
2023-01-19T09:33:48.045Z,54.71
2023-01-19T09:36:15.991Z,54.35
2023-01-19T09:38:44.046Z,54.87
2023-01-19T09:41:19.876Z,55.29
2023-01-19T09:43:57.181Z,55.66
2023-01-19T09:46:34.825Z,55.81
2023-01-19T09:49:05.430Z,55.36
2023-01-19T09:51:36.922Z,55.11
2023-01-19T09:54:21.200Z,55.22
2023-01-19T09:56:52.369Z,54.87
2023-01-19T09:59:30.782Z,55.12
2023-01-19T10:02:16.191Z,55.25
2023-01-19T10:04:45.018Z,55.37
2023-01-19T10:07:17.619Z,54.80
2023-01-19T10:09:54.359Z,54.88
2023-01-19T10:12:27.058Z,55.63
2023-01-19T10:14:58.078Z,54.62
2023-01-19T10:17:52.289Z,55.04
2023-01-19T10:20:27.885Z,54.98
2023-01-19T10:22:55.955Z,55.62
2023-01-19T10:25:26.895Z,55.59
2023-01-19T10:27:54.719Z,55.59
2023-01-19T10:30:24.268Z,55.49
2023-01-19T10:32:52.340Z,55.51
2023-01-19T10:35:24.820Z,56.06
2023-01-19T10:38:02.443Z,56.15
2023-01-19T10:40:54.070Z,56.15
2023-01-19T10:43:37.471Z,56.72
2023-01-19T10:46:34.111Z,57.12
2023-01-19T10:49:02.050Z,57.74
2023-01-19T10:51:30.009Z,58.47
2023-01-19T10:54:02.601Z,58.23
2023-01-19T10:56:37.023Z,59.37
2023-01-19T10:59:06.362Z,59.51
2023-01-19T11:01:37.591Z,59.31
2023-01-19T11:04:32.133Z,59.73
2023-01-19T11:07:19.192Z,59.26
2023-01-19T11:09:48.118Z,59.45
2023-01-19T11:12:23.557Z,59.70
2023-01-19T11:14:51.823Z,60.14
2023-01-19T11:17:26.038Z,59.49
2023-01-19T11:20:01.447Z,60.53
2023-01-19T11:22:33.465Z,59.65
2023-01-19T11:25:02.736Z,59.97
2023-01-19T11:27:31.767Z,59.51
2023-01-19T11:30:02.218Z,59.48
2023-01-19T11:32:30.064Z,59.21
2023-01-19T11:34:58.437Z,59.37
2023-01-19T11:37:29.268Z,59.17
2023-01-19T11:40:03.016Z,59.74
2023-01-19T11:42:32.227Z,59.67
2023-01-19T11:45:06.939Z,59.91
2023-01-19T11:47:52.975Z,60.08
2023-01-19T11:50:34.523Z,60.04
2023-01-19T11:53:05.699Z,60.42
2023-01-19T11:55:44.901Z,60.71
2023-01-19T11:58:17.023Z,60.39
2023-01-19T12:00:50.597Z,60.04
2023-01-19T12:03:42.608Z,59.80
2023-01-19T12:06:13.086Z,59.76
2023-01-19T12:09:02.435Z,60.19
2023-01-19T12:11:36.182Z,60.25
2023-01-19T12:14:04.057Z,60.65
2023-01-19T12:16:33.484Z,60.89
2023-01-19T12:19:11.820Z,60.49
2023-01-19T12:21:39.956Z,60.40
2023-01-19T12:24:23.952Z,59.96
2023-01-19T12:27:17.705Z,59.99
2023-01-19T12:29:45.980Z,59.33
2023-01-19T12:32:14.032Z,59.46
2023-01-19T12:34:52.326Z,59.23
2023-01-19T12:37:29.458Z,58.83
2023-01-19T12:40:01.541Z,59.12
2023-01-19T12:42:29.597Z,59.16
2023-01-19T12:45:08.426Z,58.50
2023-01-19T12:47:36.594Z,58.53
2023-01-19T12:50:19.504Z,58.42
2023-01-19T12:52:51.812Z,58.87
2023-01-19T12:55:25.218Z,58.15
2023-01-19T12:58:19.232Z,58.38
2023-01-19T13:00:49.076Z,58.59
2023-01-19T13:03:17.018Z,58.43
2023-01-19T13:05:44.900Z,57.84
2023-01-19T13:08:22.412Z,58.09
2023-01-19T13:11:11.330Z,57.74
2023-01-19T13:13:40.344Z,57.41
2023-01-19T13:16:20.571Z,57.47
2023-01-19T13:18:51.140Z,57.94
2023-01-19T13:21:44.838Z,57.55
2023-01-19T13:24:15.389Z,57.61
2023-01-19T13:26:53.425Z,58.01
2023-01-19T13:29:31.824Z,57.44
2023-01-19T13:32:03.608Z,57.74
2023-01-19T13:34:37.130Z,57.57
2023-01-19T13:37:06.717Z,57.44
2023-01-19T13:39:46.675Z,57.61
2023-01-19T13:42:28.786Z,57.59
2023-01-19T13:44:59.041Z,57.68
2023-01-19T13:47:45.714Z,57.44
2023-01-19T13:50:20.619Z,57.54
2023-01-19T13:52:49.429Z,57.82
2023-01-19T13:55:17.484Z,58.01
2023-01-19T13:57:45.922Z,57.43
2023-01-19T14:00:16.250Z,56.94
2023-01-19T14:02:56.292Z,57.11
2023-01-19T14:05:31.325Z,57.20
2023-01-19T14:08:14.113Z,56.61
2023-01-19T14:10:55.095Z,56.72
2023-01-19T14:13:30.701Z,56.85
2023-01-19T14:16:00.704Z,56.54
2023-01-19T14:18:32.796Z,56.32
2023-01-19T14:21:19.920Z,56.47
2023-01-19T14:23:49.306Z,55.96
2023-01-19T14:26:39.705Z,56.74
2023-01-19T14:29:10.603Z,56.59
2023-01-19T14:31:49.652Z,56.54
2023-01-19T14:34:36.077Z,56.20
2023-01-19T14:37:04.640Z,56.72
2023-01-19T14:39:34.379Z,56.35
2023-01-19T14:42:03.618Z,56.58
2023-01-19T14:44:41.465Z,56.16
2023-01-19T14:47:27.859Z,56.25
2023-01-19T14:49:57.257Z,55.94
2023-01-19T14:52:37.210Z,56.72
2023-01-19T14:55:09.031Z,56.12
2023-01-19T14:57:38.267Z,56.46
2023-01-19T15:00:17.509Z,56.25
2023-01-19T15:02:46.599Z,56.15
2023-01-19T15:05:14.963Z,56.49
2023-01-19T15:07:44.181Z,56.25
2023-01-19T15:10:22.294Z,56.21
2023-01-19T15:12:50.969Z,56.43
2023-01-19T15:15:33.310Z,55.70
2023-01-19T15:18:02.083Z,55.94
2023-01-19T15:20:30.113Z,56.24
2023-01-19T15:22:58.085Z,56.52
2023-01-19T15:25:28.616Z,56.11
2023-01-19T15:27:58.488Z,56.53
2023-01-19T15:30:28.226Z,56.44
2023-01-19T15:32:56.032Z,56.31
2023-01-19T15:35:24.359Z,55.87
2023-01-19T15:37:52.277Z,55.74
2023-01-19T15:40:20.406Z,55.50
2023-01-19T15:42:48.418Z,55.70
2023-01-19T15:45:19.233Z,55.53
2023-01-19T15:47:48.079Z,56.24
2023-01-19T15:50:16.224Z,55.94
2023-01-19T15:52:44.148Z,56.25
2023-01-19T15:55:12.501Z,55.99
2023-01-19T15:57:40.334Z,56.01
2023-01-19T16:00:09.102Z,56.69
2023-01-19T16:02:39.771Z,56.06
2023-01-19T16:05:08.443Z,55.84
2023-01-19T16:07:36.551Z,56.00
2023-01-19T16:10:06.682Z,56.28
2023-01-19T16:12:34.498Z,55.76
2023-01-19T16:15:02.352Z,55.89
2023-01-19T16:17:30.027Z,56.18
2023-01-19T16:19:57.895Z,56.61
2023-01-19T16:22:25.679Z,56.70
2023-01-19T16:24:53.677Z,56.35
2023-01-19T16:27:21.560Z,56.40
2023-01-19T16:29:49.366Z,55.98
2023-01-19T16:32:17.218Z,56.49
2023-01-19T16:34:45.129Z,56.47
2023-01-19T16:37:12.969Z,56.37
2023-01-19T16:39:40.827Z,56.21
2023-01-19T16:42:08.687Z,55.93
2023-01-19T16:44:36.850Z,55.68
2023-01-19T16:47:04.686Z,55.77
2023-01-19T16:49:32.663Z,55.54
2023-01-19T16:52:00.630Z,55.30
2023-01-19T16:54:28.735Z,55.53
2023-01-19T16:56:57.147Z,55.06
2023-01-19T16:59:25.511Z,54.90
2023-01-19T17:01:53.726Z,54.65
2023-01-19T17:04:22.152Z,54.43
2023-01-19T17:06:50.574Z,54.25
2023-01-19T17:09:18.539Z,53.93
2023-01-19T17:11:46.523Z,54.02
2023-01-19T17:14:16.744Z,52.57
2023-01-19T17:16:44.777Z,53.16
2023-01-19T17:19:17.499Z,51.28
2023-01-19T17:21:46.663Z,51.28
2023-01-19T17:24:14.623Z,51.46
2023-01-19T17:26:42.845Z,51.34
2023-01-19T17:29:10.872Z,51.12
2023-01-19T17:31:38.696Z,51.45
2023-01-19T17:34:06.684Z,50.89
2023-01-19T17:36:34.558Z,51.00
2023-01-19T17:39:09.283Z,50.86
2023-01-19T17:41:37.227Z,51.01
2023-01-19T17:44:05.717Z,51.52
2023-01-19T17:46:36.306Z,51.04
2023-01-19T17:49:05.270Z,50.61
2023-01-19T17:51:33.022Z,50.63
2023-01-19T17:54:00.895Z,50.07
2023-01-19T17:56:30.561Z,49.00
2023-01-19T17:58:58.821Z,48.54
2023-01-19T18:01:28.343Z,48.31
2023-01-19T18:03:56.397Z,47.59
2023-01-19T18:06:24.316Z,46.90
2023-01-19T18:08:52.821Z,46.58
2023-01-19T18:11:21.048Z,46.31
2023-01-19T18:13:49.881Z,46.89
2023-01-19T18:16:20.271Z,45.78
2023-01-19T18:18:50.027Z,46.47
2023-01-19T18:21:18.978Z,45.66
2023-01-19T18:23:46.756Z,45.99
2023-01-19T18:26:17.218Z,45.61
2023-01-19T18:28:45.167Z,45.30
2023-01-19T18:31:14.864Z,45.90
2023-01-19T18:33:42.683Z,45.04
2023-01-19T18:36:10.644Z,45.43
2023-01-19T18:38:38.914Z,44.91
2023-01-19T18:41:08.653Z,44.72
2023-01-19T18:43:36.580Z,44.99
2023-01-19T18:46:04.477Z,44.63
2023-01-19T18:48:32.417Z,44.58
2023-01-19T18:51:03.827Z,44.09
2023-01-19T18:53:32.234Z,43.59
2023-01-19T18:56:00.674Z,43.79
2023-01-19T18:58:29.589Z,43.19
2023-01-19T19:00:57.547Z,43.48
2023-01-19T19:03:25.716Z,43.68
2023-01-19T19:05:53.839Z,43.22
2023-01-19T19:08:21.730Z,42.78
2023-01-19T19:10:49.548Z,42.86
2023-01-19T19:13:17.628Z,43.24
2023-01-19T19:15:45.417Z,42.97
2023-01-19T19:18:16.656Z,43.06
2023-01-19T19:20:44.545Z,42.87
2023-01-19T19:23:12.664Z,42.74
2023-01-19T19:25:40.586Z,42.67
2023-01-19T19:28:08.952Z,42.82
2023-01-19T19:30:39.262Z,43.13
2023-01-19T19:33:08.196Z,42.59
2023-01-19T19:35:36.027Z,42.66
2023-01-19T19:38:04.104Z,43.08
2023-01-19T19:40:31.896Z,43.77
2023-01-19T19:42:59.882Z,45.12
2023-01-19T19:45:27.880Z,46.38
2023-01-19T19:47:55.912Z,47.25
2023-01-19T19:50:23.901Z,49.04
2023-01-19T19:52:51.792Z,50.11
2023-01-19T19:55:19.637Z,51.57
2023-01-19T19:57:47.970Z,51.33
2023-01-19T20:00:16.178Z,52.27
2023-01-19T20:02:44.876Z,52.13
2023-01-19T20:05:12.654Z,51.97
2023-01-19T20:07:46.682Z,51.60
2023-01-19T20:10:14.865Z,51.80
2023-01-19T20:12:42.774Z,51.27
2023-01-19T20:15:11.457Z,51.15
2023-01-19T20:17:39.198Z,50.19
2023-01-19T20:20:07.745Z,50.06
2023-01-19T20:22:35.614Z,49.52
2023-01-19T20:25:03.371Z,48.93
2023-01-19T20:27:31.199Z,48.24
2023-01-19T20:29:59.046Z,47.98
2023-01-19T20:32:27.164Z,47.42
2023-01-19T20:34:54.921Z,46.16
2023-01-19T20:37:22.855Z,46.25
2023-01-19T20:39:50.928Z,45.53
2023-01-19T20:42:18.729Z,44.92
2023-01-19T20:44:46.538Z,45.30
2023-01-19T20:47:14.478Z,45.26
2023-01-19T20:49:42.426Z,44.87
2023-01-19T20:52:10.368Z,45.16
2023-01-19T20:54:40.163Z,45.62
2023-01-19T20:57:07.930Z,46.71
2023-01-19T20:59:37.412Z,46.81
2023-01-19T21:02:08.443Z,47.65
2023-01-19T21:04:36.284Z,47.77
2023-01-19T21:07:04.983Z,48.33
2023-01-19T21:09:32.718Z,48.05
2023-01-19T21:12:00.570Z,48.25
2023-01-19T21:14:28.577Z,48.27
2023-01-19T21:16:58.918Z,48.21
2023-01-19T21:19:26.717Z,47.24
2023-01-19T21:21:55.607Z,47.45
2023-01-19T21:24:23.668Z,47.24
2023-01-19T21:26:51.537Z,47.23
2023-01-19T21:29:19.510Z,47.18
2023-01-19T21:31:47.387Z,46.94
2023-01-19T21:34:15.363Z,46.08
2023-01-19T21:36:45.049Z,45.46
2023-01-19T21:39:13.071Z,44.84
2023-01-19T21:41:42.766Z,44.90
2023-01-19T21:44:14.458Z,44.69
2023-01-19T21:46:42.490Z,44.61
2023-01-19T21:49:19.180Z,44.56
2023-01-19T21:51:48.105Z,44.51
2023-01-19T21:54:15.858Z,44.91
2023-01-19T21:56:43.911Z,44.76
2023-01-19T21:59:15.417Z,44.65
2023-01-19T22:01:43.831Z,44.28
2023-01-19T22:04:12.036Z,44.75
2023-01-19T22:06:40.084Z,44.37
2023-01-19T22:09:08.259Z,44.36
2023-01-19T22:11:36.485Z,44.57
2023-01-19T22:14:04.220Z,44.47
2023-01-19T22:16:32.164Z,44.64
2023-01-19T22:19:01.532Z,44.18
2023-01-19T22:21:34.480Z,44.37
2023-01-19T22:24:02.961Z,43.87
2023-01-19T22:26:30.983Z,43.53
2023-01-19T22:29:00.325Z,43.57
2023-01-19T22:31:28.776Z,42.86
2023-01-19T22:33:57.032Z,42.28
2023-01-19T22:36:28.536Z,42.69
2023-01-19T22:39:00.855Z,42.71
2023-01-19T22:41:33.879Z,42.55
2023-01-19T22:44:03.610Z,42.65
2023-01-19T22:46:32.643Z,42.58
2023-01-19T22:49:00.787Z,42.42
2023-01-19T22:51:29.718Z,42.71
2023-01-19T22:53:57.843Z,43.03
2023-01-19T22:56:30.377Z,43.45
2023-01-19T22:58:58.658Z,43.78
2023-01-19T23:01:31.893Z,44.33
2023-01-19T23:04:00.556Z,44.64
2023-01-19T23:06:29.638Z,45.29
2023-01-19T23:08:59.178Z,46.24
2023-01-19T23:11:35.551Z,46.40
2023-01-19T23:14:04.504Z,47.79
2023-01-19T23:16:32.305Z,48.30
2023-01-19T23:19:00.137Z,48.81
2023-01-19T23:21:29.175Z,49.81
2023-01-19T23:23:58.226Z,50.22
2023-01-19T23:26:26.092Z,50.11
2023-01-19T23:28:58.907Z,50.31
2023-01-19T23:31:28.497Z,50.46
2023-01-19T23:34:03.396Z,50.83
2023-01-19T23:36:33.089Z,51.14
2023-01-19T23:39:03.085Z,51.08
2023-01-19T23:41:31.775Z,51.14
2023-01-19T23:43:59.688Z,51.09
2023-01-19T23:46:27.752Z,51.17
2023-01-19T23:48:56.018Z,50.89
2023-01-19T23:51:25.881Z,50.99
2023-01-19T23:53:53.838Z,50.10
2023-01-19T23:56:26.437Z,50.15
2023-01-19T23:58:56.104Z,50.32
